Time,TemperatureF,DewpointF,PressureIn,WindDirection,WindDirectionDegrees,WindSpeedMPH,WindSpeedGustMPH,Humidity,HourlyPrecipIn,Conditions,Clouds,dailyrainin,SolarRadiationWatts/m^2,SoftwareType,DateUTC
2013-03-31 00:02:00,38.0,-99.9,-100.00,SSW,192,0.0,6.0,0,0.00,,,0.00,0.000000,,2013-03-31 07:02:00,
2013-03-31 00:33:00,34.0,-50.0,-100.00,South,181,0.0,5.0,0,0.00,,,0.00,0.000000,,2013-03-31 07:33:00,
2013-03-31 00:43:00,34.0,-99.9,-100.00,South,181,0.0,5.0,0,0.00,,,0.00,0.000000,,2013-03-31 07:43:00,
2013-03-31 00:53:00,34.0,-99.9,-100.00,South,181,0.0,5.0,0,0.00,,,0.00,0.000000,,2013-03-31 07:53:00,
2013-03-31 01:02:00,34.0,-99.9,-100.00,South,181,0.0,5.0,0,0.00,,,0.00,0.000000,,2013-03-31 08:02:00,
2013-03-31 01:22:00,36.0,-48.0,-100.00,SSW,194,0.0,4.0,0,0.00,,,0.00,0.000000,,2013-03-31 08:22:00,
2013-03-31 01:32:00,36.0,-48.0,-100.00,SSW,194,0.0,4.0,0,0.00,,,0.00,0.000000,,2013-03-31 08:32:00,
2013-03-31 01:43:00,36.0,-99.9,-100.00,SSW,194,0.0,4.0,0,0.00,,,0.00,0.000000,,2013-03-31 08:43:00,
2013-03-31 01:52:00,36.0,-99.9,-100.00,SSW,194,0.0,4.0,0,0.00,,,0.00,0.000000,,2013-03-31 08:52:00,
2013-03-31 02:02:00,36.0,-99.9,-100.00,SSW,194,0.0,4.0,0,0.00,,,0.00,0.000000,,2013-03-31 09:02:00,
2013-03-31 02:03:00,32.0,-99.9,-100.00,SW,225,0.0,0.0,0,0.00,,,0.00,0.000000,,2013-03-31 09:03:00,
2013-03-31 02:33:00,32.0,-51.0,-100.00,SW,225,0.0,0.0,0,0.00,,,0.00,0.000000,,2013-03-31 09:33:00,
2013-03-31 02:43:00,32.0,-99.9,-100.00,SW,225,0.0,0.0,0,0.00,,,0.00,0.000000,,2013-03-31 09:43:00,
2013-03-31 02:53:00,32.0,-99.9,-100.00,SW,225,0.0,0.0,0,0.00,,,0.00,0.000000,,2013-03-31 09:53:00,
2013-03-31 03:03:00,33.0,-99.9,-100.00,SSW,202,0.0,2.0,0,0.00,,,0.00,0.000000,,2013-03-31 10:03:00,
2013-03-31 03:33:00,33.0,-50.0,-100.00,SSW,202,0.0,2.0,0,0.00,,,0.00,0.000000,,2013-03-31 10:33:00,
2013-03-31 03:42:00,33.0,-99.9,-100.00,SSW,202,0.0,2.0,0,0.00,,,0.00,0.000000,,2013-03-31 10:42:00,
2013-03-31 03:53:00,33.0,-99.9,-100.00,SSW,202,0.0,2.0,0,0.00,,,0.00,0.000000,,2013-03-31 10:53:00,
2013-03-31 04:03:00,32.0,-99.9,-100.00,SW,220,0.0,3.0,0,0.00,,,0.00,0.000000,,2013-03-31 11:03:00,
2013-03-31 04:33:00,32.0,-51.0,-100.00,SW,220,0.0,3.0,0,0.00,,,0.00,0.000000,,2013-03-31 11:33:00,
2013-03-31 04:43:00,32.0,-99.9,-100.00,SW,220,0.0,3.0,0,0.00,,,0.00,0.000000,,2013-03-31 11:43:00,
2013-03-31 04:53:00,32.0,-99.9,-100.00,SW,220,0.0,3.0,0,0.00,,,0.00,0.000000,,2013-03-31 11:53:00,
2013-03-31 05:22:00,32.0,-51.0,-100.00,SSW,196,0.0,0.0,0,0.00,,,0.00,0.000000,,2013-03-31 12:22:00,
2013-03-31 05:33:00,32.0,-51.0,-100.00,SSW,196,0.0,0.0,0,0.00,,,0.00,0.000000,,2013-03-31 12:33:00,
2013-03-31 05:42:00,32.0,-99.9,-100.00,SSW,196,0.0,0.0,0,0.00,,,0.00,0.000000,,2013-03-31 12:42:00,
2013-03-31 05:53:00,32.0,-99.9,-100.00,SSW,196,0.0,0.0,0,0.00,,,0.00,0.000000,,2013-03-31 12:53:00,
2013-03-31 06:02:00,32.0,-99.9,-100.00,SSW,196,0.0,0.0,0,0.00,,,0.00,0.000000,,2013-03-31 13:02:00,
2013-03-31 06:03:00,30.0,-99.9,-100.00,SSW,198,0.0,5.0,0,0.00,,,0.00,0.000000,,2013-03-31 13:03:00,
2013-03-31 06:32:00,30.0,-52.0,-100.00,SSW,198,0.0,5.0,0,0.00,,,0.00,0.000000,,2013-03-31 13:32:00,
2013-03-31 06:42:00,30.0,-99.9,-100.00,SSW,198,0.0,5.0,0,0.00,,,0.00,0.000000,,2013-03-31 13:42:00,
2013-03-31 06:53:00,30.0,-99.9,-100.00,SSW,198,0.0,5.0,0,0.00,,,0.00,0.000000,,2013-03-31 13:53:00,
2013-03-31 07:03:00,33.0,-99.9,-100.00,SSW,192,0.0,3.0,0,0.00,,,0.00,31.000000,,2013-03-31 14:03:00,
2013-03-31 07:23:00,33.0,-50.0,-100.00,SSW,192,0.0,3.0,0,0.00,,,0.00,31.000000,,2013-03-31 14:23:00,
2013-03-31 07:33:00,33.0,-50.0,-100.00,SSW,192,0.0,3.0,0,0.00,,,0.00,31.000000,,2013-03-31 14:33:00,
2013-03-31 07:43:00,33.0,-99.9,-100.00,SSW,192,0.0,3.0,0,0.00,,,0.00,31.000000,,2013-03-31 14:43:00,
2013-03-31 07:53:00,33.0,-99.9,-100.00,SSW,192,0.0,3.0,0,0.00,,,0.00,31.000000,,2013-03-31 14:53:00,
2013-03-31 08:34:00,51.0,-39.0,-100.00,SE,135,2.0,0.0,0,0.00,,,0.00,157.000000,,2013-03-31 15:34:00,
2013-03-31 09:34:00,59.0,-34.0,-100.00,SSW,193,3.0,6.0,0,0.00,,,0.00,164.000000,,2013-03-31 16:34:00,
2013-03-31 10:03:00,59.0,-99.9,-100.00,SE,124,7.0,9.0,0,0.00,,,0.00,572.000000,,2013-03-31 17:03:00,
2013-03-31 10:32:00,59.0,-34.0,-100.00,SE,124,7.0,9.0,0,0.00,,,0.00,572.000000,,2013-03-31 17:32:00,
2013-03-31 10:43:00,59.0,-99.9,-100.00,SE,124,7.0,9.0,0,0.00,,,0.00,572.000000,,2013-03-31 17:43:00,
2013-03-31 10:53:00,59.0,-99.9,-100.00,SE,124,7.0,9.0,0,0.00,,,0.00,572.000000,,2013-03-31 17:53:00,
2013-03-31 11:03:00,62.0,-99.9,-100.00,SE,136,3.0,14.0,0,0.00,,,0.00,733.000000,,2013-03-31 18:03:00,
2013-03-31 11:33:00,62.0,-32.0,-100.00,SE,136,3.0,14.0,0,0.00,,,0.00,733.000000,,2013-03-31 18:33:00,
2013-03-31 11:43:00,62.0,-99.9,-100.00,SE,136,3.0,14.0,0,0.00,,,0.00,733.000000,,2013-03-31 18:43:00,
2013-03-31 11:53:00,62.0,-99.9,-100.00,SE,136,3.0,14.0,0,0.00,,,0.00,733.000000,,2013-03-31 18:53:00,
2013-03-31 12:03:00,63.0,-99.9,-100.00,WSW,243,5.0,16.0,0,0.00,,,0.00,968.000000,,2013-03-31 19:03:00,
2013-03-31 12:33:00,63.0,-31.0,-100.00,WSW,243,5.0,16.0,0,0.00,,,0.00,968.000000,,2013-03-31 19:33:00,
2013-03-31 12:43:00,63.0,-99.9,-100.00,WSW,243,5.0,16.0,0,0.00,,,0.00,968.000000,,2013-03-31 19:43:00,
2013-03-31 12:54:00,63.0,-99.9,-100.00,WSW,243,5.0,16.0,0,0.00,,,0.00,968.000000,,2013-03-31 19:54:00,
2013-03-31 13:03:00,64.0,-99.9,-100.00,WNW,294,5.0,16.0,0,0.00,,,0.00,1029.000000,,2013-03-31 20:03:00,
2013-03-31 13:34:00,64.0,-31.0,-100.00,WNW,294,5.0,16.0,0,0.00,,,0.00,1029.000000,,2013-03-31 20:34:00,
2013-03-31 13:44:00,64.0,-99.9,-100.00,WNW,294,5.0,16.0,0,0.00,,,0.00,1029.000000,,2013-03-31 20:44:00,
2013-03-31 13:53:00,64.0,-99.9,-100.00,WNW,294,5.0,16.0,0,0.00,,,0.00,1029.000000,,2013-03-31 20:53:00,
2013-03-31 14:03:00,63.0,-99.9,-100.00,SSW,199,7.0,16.0,0,0.00,,,0.00,993.000000,,2013-03-31 21:03:00,
2013-03-31 14:34:00,63.0,-31.0,-100.00,SSW,199,7.0,16.0,0,0.00,,,0.00,993.000000,,2013-03-31 21:34:00,
2013-03-31 14:44:00,63.0,-99.9,-100.00,SSW,199,7.0,16.0,0,0.00,,,0.00,993.000000,,2013-03-31 21:44:00,
2013-03-31 14:54:00,63.0,-99.9,-100.00,SSW,199,7.0,16.0,0,0.00,,,0.00,993.000000,,2013-03-31 21:54:00,
2013-03-31 15:03:00,64.0,-99.9,-100.00,SSE,157,5.0,18.0,0,0.00,,,0.00,875.000000,,2013-03-31 22:03:00,
2013-03-31 15:24:00,64.0,-31.0,-100.00,SSE,157,5.0,18.0,0,0.00,,,0.00,875.000000,,2013-03-31 22:24:00,
2013-03-31 15:33:00,64.0,-31.0,-100.00,SSE,157,5.0,18.0,0,0.00,,,0.00,875.000000,,2013-03-31 22:33:00,
2013-03-31 15:43:00,64.0,-99.9,-100.00,SSE,157,5.0,18.0,0,0.00,,,0.00,875.000000,,2013-03-31 22:43:00,
2013-03-31 15:54:00,64.0,-99.9,-100.00,SSE,157,5.0,18.0,0,0.00,,,0.00,875.000000,,2013-03-31 22:54:00,
2013-03-31 16:03:00,62.0,-99.9,-100.00,East,82,6.0,18.0,0,0.00,,,0.00,710.000000,,2013-03-31 23:03:00,
2013-03-31 16:33:00,62.0,-32.0,-100.00,East,82,6.0,18.0,0,0.00,,,0.00,710.000000,,2013-03-31 23:33:00,
2013-03-31 16:43:00,62.0,-99.9,-100.00,East,82,6.0,18.0,0,0.00,,,0.00,710.000000,,2013-03-31 23:43:00,
2013-03-31 16:54:00,62.0,-99.9,-100.00,East,82,6.0,18.0,0,0.00,,,0.00,710.000000,,2013-03-31 23:54:00,
2013-03-31 17:03:00,60.0,-99.9,-100.00,SSW,193,5.0,19.0,0,0.00,,,0.00,283.000000,,2013-04-01 00:03:00,
2013-03-31 17:22:00,60.0,-33.0,-100.00,SSW,193,5.0,19.0,0,0.00,,,0.00,283.000000,,2013-04-01 00:22:00,
2013-03-31 17:33:00,60.0,-99.9,-100.00,SSW,193,5.0,19.0,0,0.00,,,0.00,283.000000,,2013-04-01 00:33:00,
2013-03-31 17:43:00,60.0,-99.9,-100.00,SSW,193,5.0,19.0,0,0.00,,,0.00,283.000000,,2013-04-01 00:43:00,
2013-03-31 17:53:00,60.0,-99.9,-100.00,SSW,193,5.0,19.0,0,0.00,,,0.00,283.000000,,2013-04-01 00:53:00,
2013-03-31 18:03:00,55.0,-99.9,-100.00,South,181,5.0,16.0,0,0.00,,,0.00,36.000000,,2013-04-01 01:03:00,
2013-03-31 18:33:00,55.0,-36.0,-100.00,South,181,5.0,16.0,0,0.00,,,0.00,36.000000,,2013-04-01 01:33:00,
2013-03-31 18:43:00,55.0,-99.9,-100.00,South,181,5.0,16.0,0,0.00,,,0.00,36.000000,,2013-04-01 01:43:00,
2013-03-31 18:53:00,55.0,-99.9,-100.00,South,181,5.0,16.0,0,0.00,,,0.00,36.000000,,2013-04-01 01:53:00,
2013-03-31 19:03:00,51.0,-99.9,-100.00,WNW,289,4.0,20.0,0,0.00,,,0.00,14.000000,,2013-04-01 02:03:00,
2013-03-31 19:33:00,51.0,-39.0,-100.00,WNW,289,4.0,20.0,0,0.00,,,0.00,14.000000,,2013-04-01 02:33:00,
2013-03-31 19:43:00,51.0,-99.9,-100.00,WNW,289,4.0,20.0,0,0.00,,,0.00,14.000000,,2013-04-01 02:43:00,
2013-03-31 19:53:00,51.0,-99.9,-100.00,WNW,289,4.0,20.0,0,0.00,,,0.00,14.000000,,2013-04-01 02:53:00,
2013-03-31 20:03:00,49.0,-99.9,-100.00,South,172,3.0,13.0,0,0.00,,,0.00,0.000000,,2013-04-01 03:03:00,
2013-03-31 20:35:00,49.0,-40.0,-100.00,South,172,3.0,13.0,0,0.00,,,0.00,0.000000,,2013-04-01 03:35:00,
2013-03-31 20:44:00,49.0,-99.9,-100.00,South,172,3.0,13.0,0,0.00,,,0.00,0.000000,,2013-04-01 03:44:00,
2013-03-31 20:53:00,49.0,-99.9,-100.00,South,172,3.0,13.0,0,0.00,,,0.00,0.000000,,2013-04-01 03:53:00,
2013-03-31 21:03:00,42.0,-99.9,-100.00,SSE,167,3.0,8.0,0,0.00,,,0.00,0.000000,,2013-04-01 04:03:00,
2013-03-31 21:33:00,42.0,-45.0,-100.00,SSE,167,3.0,8.0,0,0.00,,,0.00,0.000000,,2013-04-01 04:33:00,
2013-03-31 21:44:00,42.0,-99.9,-100.00,SSE,167,3.0,8.0,0,0.00,,,0.00,0.000000,,2013-04-01 04:44:00,
2013-03-31 21:53:00,42.0,-99.9,-100.00,SSE,167,3.0,8.0,0,0.00,,,0.00,0.000000,,2013-04-01 04:53:00,
2013-03-31 22:33:00,40.0,-46.0,-100.00,South,171,1.0,5.0,0,0.00,,,0.00,0.000000,,2013-04-01 05:33:00,
2013-03-31 22:43:00,40.0,-99.9,-100.00,South,171,1.0,5.0,0,0.00,,,0.00,0.000000,,2013-04-01 05:43:00,
2013-03-31 22:53:00,40.0,-99.9,-100.00,South,171,1.0,5.0,0,0.00,,,0.00,0.000000,,2013-04-01 05:53:00,
2013-03-31 23:02:00,40.0,-99.9,-100.00,South,171,1.0,5.0,0,0.00,,,0.00,0.000000,,2013-04-01 06:02:00,
2013-03-31 23:03:00,40.0,-99.9,-100.00,SSW,201,0.0,5.0,0,0.00,,,0.00,0.000000,,2013-04-01 06:03:00,
2013-03-31 23:23:00,40.0,-46.0,-100.00,SSW,201,0.0,5.0,0,0.00,,,0.00,0.000000,,2013-04-01 06:23:00,
2013-03-31 23:33:00,40.0,-46.0,-100.00,SSW,201,0.0,5.0,0,0.00,,,0.00,0.000000,,2013-04-01 06:33:00,
2013-03-31 23:43:00,40.0,-99.9,-100.00,SSW,201,0.0,5.0,0,0.00,,,0.00,0.000000,,2013-04-01 06:43:00,
2013-03-31 23:53:00,40.0,-99.9,-100.00,SSW,201,0.0,5.0,0,0.00,,,0.00,0.000000,,2013-04-01 06:53:00,